createdAt,value
2022-11-21T00:01:19.511Z,5.79
2022-11-21T00:03:46.196Z,5.90
2022-11-21T00:06:13.079Z,5.93
2022-11-21T00:08:39.639Z,5.90
2022-11-21T00:11:06.108Z,5.90
2022-11-21T00:13:32.573Z,5.87
2022-11-21T00:16:06.723Z,5.84
2022-11-21T00:18:34.693Z,5.77
2022-11-21T00:21:10.175Z,5.75
2022-11-21T00:23:36.588Z,5.71
2022-11-21T00:26:11.190Z,5.72
2022-11-21T00:28:37.859Z,5.67
2022-11-21T00:31:05.292Z,5.73
2022-11-21T00:33:32.113Z,5.71
2022-11-21T00:35:58.604Z,5.64
2022-11-21T00:38:25.020Z,5.67
2022-11-21T00:40:51.495Z,5.71
2022-11-21T00:43:17.900Z,5.72
2022-11-21T00:45:44.357Z,5.69
2022-11-21T00:48:10.778Z,5.66
2022-11-21T00:50:37.271Z,5.58
2022-11-21T00:53:03.679Z,5.63
2022-11-21T00:55:30.079Z,5.65
2022-11-21T00:57:56.519Z,5.65
2022-11-21T01:00:23.076Z,5.66
2022-11-21T01:02:49.596Z,5.55
2022-11-21T01:05:16.134Z,5.65
2022-11-21T01:07:42.598Z,5.56
2022-11-21T01:10:09.147Z,5.53
2022-11-21T01:12:35.610Z,5.51
2022-11-21T01:15:02.056Z,5.51
2022-11-21T01:17:28.486Z,5.48
2022-11-21T01:19:55.012Z,5.43
2022-11-21T01:22:21.428Z,5.45
2022-11-21T01:24:50.470Z,5.50
2022-11-21T01:27:16.895Z,5.54
2022-11-21T01:29:45.830Z,5.51
2022-11-21T01:32:12.228Z,5.54
2022-11-21T01:34:40.914Z,5.61
2022-11-21T01:37:07.396Z,5.59
2022-11-21T01:39:36.175Z,5.58
2022-11-21T01:42:02.907Z,5.61
2022-11-21T01:44:54.088Z,5.58
2022-11-21T01:47:22.610Z,5.64
2022-11-21T01:49:51.775Z,5.65
2022-11-21T01:52:31.332Z,5.74
2022-11-21T01:55:05.960Z,5.80
2022-11-21T01:57:48.437Z,5.79
2022-11-21T02:00:23.744Z,5.74
2022-11-21T02:02:56.099Z,5.70
2022-11-21T02:05:26.680Z,5.83
2022-11-21T02:07:57.326Z,5.77
2022-11-21T02:10:24.097Z,5.82
2022-11-21T02:12:55.383Z,5.85
2022-11-21T02:15:24.621Z,5.73
2022-11-21T02:17:51.157Z,5.69
2022-11-21T02:20:23.121Z,5.75
2022-11-21T02:23:19.575Z,5.93
2022-11-21T02:25:46.165Z,5.93
2022-11-21T02:28:15.951Z,5.94
2022-11-21T02:30:43.745Z,5.97
2022-11-21T02:33:11.236Z,5.89
2022-11-21T02:35:38.049Z,5.99
2022-11-21T02:38:22.542Z,6.12
2022-11-21T02:40:55.087Z,6.08
2022-11-21T02:43:31.971Z,6.21
2022-11-21T02:45:59.085Z,6.12
2022-11-21T02:48:25.569Z,6.17
2022-11-21T02:50:52.027Z,6.17
2022-11-21T02:53:19.450Z,6.19
2022-11-21T02:55:48.242Z,6.20
2022-11-21T02:58:17.501Z,6.15
2022-11-21T03:00:44.100Z,6.04
2022-11-21T03:03:10.644Z,6.01
2022-11-21T03:05:39.031Z,6.03
2022-11-21T03:08:05.897Z,6.03
2022-11-21T03:10:32.723Z,5.93
2022-11-21T03:13:02.488Z,5.89
2022-11-21T03:15:31.718Z,5.80
2022-11-21T03:17:58.495Z,5.83
2022-11-21T03:20:25.020Z,5.91
2022-11-21T03:22:53.420Z,5.94
2022-11-21T03:25:20.299Z,5.99
2022-11-21T03:27:46.724Z,6.04
2022-11-21T03:30:13.660Z,5.94
2022-11-21T03:32:40.074Z,5.89
2022-11-21T03:35:06.775Z,5.89
2022-11-21T03:37:33.394Z,5.95
2022-11-21T03:40:02.417Z,5.88
2022-11-21T03:42:28.828Z,5.85
2022-11-21T03:44:55.275Z,5.87
2022-11-21T03:47:22.682Z,5.87
2022-11-21T03:49:49.063Z,6.03
2022-11-21T03:52:15.497Z,6.02
2022-11-21T03:54:41.900Z,6.18
2022-11-21T03:57:10.752Z,6.24
2022-11-21T03:59:37.149Z,6.12
2022-11-21T04:02:03.580Z,6.10
2022-11-21T04:04:30.375Z,5.99
2022-11-21T04:06:56.978Z,6.07
2022-11-21T04:09:23.427Z,6.02
2022-11-21T04:11:49.864Z,6.02
2022-11-21T04:14:16.901Z,5.91
2022-11-21T04:16:43.604Z,5.85
2022-11-21T04:19:10.006Z,5.79
2022-11-21T04:21:36.562Z,5.82
2022-11-21T04:24:03.045Z,5.82
2022-11-21T04:26:29.488Z,5.69
2022-11-21T04:28:55.933Z,5.78
2022-11-21T04:31:22.340Z,5.78
2022-11-21T04:33:48.745Z,5.75
2022-11-21T04:36:15.222Z,5.68
2022-11-21T04:38:41.618Z,5.61
2022-11-21T04:41:08.023Z,5.76
2022-11-21T04:43:34.519Z,5.75
2022-11-21T04:46:01.047Z,5.54
2022-11-21T04:48:27.483Z,5.51
2022-11-21T04:50:53.930Z,5.52
2022-11-21T04:53:20.405Z,5.47
2022-11-21T04:55:46.881Z,5.49
2022-11-21T04:58:14.020Z,5.42
2022-11-21T05:00:40.463Z,5.30
2022-11-21T05:03:07.863Z,5.34
2022-11-21T05:05:34.323Z,5.15
2022-11-21T05:08:00.743Z,5.19
2022-11-21T05:10:27.482Z,5.11
2022-11-21T05:13:19.237Z,5.22
2022-11-21T05:15:46.284Z,5.16
2022-11-21T05:18:13.287Z,5.04
2022-11-21T05:20:39.761Z,4.99
2022-11-21T05:23:06.278Z,5.04
2022-11-21T05:25:32.746Z,4.99
2022-11-21T05:28:01.364Z,4.97
2022-11-21T05:30:30.215Z,5.26
2022-11-21T05:32:56.741Z,5.22
2022-11-21T05:35:23.378Z,5.13
2022-11-21T05:37:55.962Z,5.10
2022-11-21T05:40:25.382Z,5.35
2022-11-21T05:43:10.599Z,5.24
2022-11-21T05:45:37.073Z,5.25
2022-11-21T05:48:07.713Z,5.27
2022-11-21T05:50:35.987Z,5.36
2022-11-21T05:53:05.781Z,5.50
2022-11-21T05:55:36.605Z,5.51
2022-11-21T05:58:03.111Z,5.64
2022-11-21T06:00:29.663Z,5.66
2022-11-21T06:03:14.880Z,5.70
2022-11-21T06:05:41.500Z,5.67
2022-11-21T06:08:08.002Z,5.72
2022-11-21T06:10:34.445Z,5.71
2022-11-21T06:13:01.571Z,5.76
2022-11-21T06:15:29.092Z,5.78
2022-11-21T06:17:55.539Z,5.74
2022-11-21T06:20:21.989Z,5.84
2022-11-21T06:22:48.388Z,5.91
2022-11-21T06:25:14.880Z,5.99
2022-11-21T06:27:41.304Z,5.95
2022-11-21T06:30:08.431Z,5.94
2022-11-21T06:32:38.194Z,5.90
2022-11-21T06:35:05.171Z,5.84
2022-11-21T06:37:31.651Z,5.86
2022-11-21T06:39:58.526Z,5.81
2022-11-21T06:42:26.957Z,5.74
2022-11-21T06:44:53.419Z,5.72
2022-11-21T06:47:20.234Z,5.63
2022-11-21T06:49:46.652Z,5.57
2022-11-21T06:52:13.140Z,5.48
2022-11-21T06:54:39.541Z,5.55
2022-11-21T06:57:06.004Z,5.65
2022-11-21T06:59:32.469Z,5.55
2022-11-21T07:01:59.127Z,5.56
2022-11-21T07:04:25.810Z,5.56
2022-11-21T07:06:52.523Z,5.43
2022-11-21T07:09:36.414Z,5.53
2022-11-21T07:12:24.493Z,5.46
2022-11-21T07:14:53.857Z,5.39
2022-11-21T07:17:20.363Z,5.46
2022-11-21T07:19:46.828Z,5.38
2022-11-21T07:22:13.251Z,5.34
2022-11-21T07:24:39.683Z,5.42
2022-11-21T07:27:06.095Z,5.42
2022-11-21T07:29:32.568Z,5.55
2022-11-21T07:31:58.998Z,5.43
2022-11-21T07:34:25.482Z,5.55
2022-11-21T07:36:54.175Z,5.44
2022-11-21T07:39:20.660Z,5.53
2022-11-21T07:41:47.082Z,5.57
2022-11-21T07:44:13.725Z,5.55
2022-11-21T07:46:40.137Z,5.46
2022-11-21T07:49:06.930Z,5.49
2022-11-21T07:51:33.417Z,5.55
2022-11-21T07:53:59.830Z,5.61
2022-11-21T07:56:28.485Z,5.55
2022-11-21T07:58:54.879Z,5.83
2022-11-21T08:01:21.422Z,5.87
2022-11-21T08:03:47.984Z,5.88
2022-11-21T08:06:14.537Z,6.05
2022-11-21T08:08:41.043Z,6.07
2022-11-21T08:11:10.366Z,5.98
2022-11-21T08:13:36.865Z,6.10
2022-11-21T08:16:06.619Z,6.12
2022-11-21T08:18:35.437Z,6.10
2022-11-21T08:21:03.431Z,6.11
2022-11-21T08:23:30.494Z,6.10
2022-11-21T08:25:59.448Z,6.22
2022-11-21T08:28:26.026Z,6.19
2022-11-21T08:30:52.573Z,6.37
2022-11-21T08:33:19.007Z,6.46
2022-11-21T08:35:45.512Z,6.48
2022-11-21T08:38:12.009Z,6.60
2022-11-21T08:40:40.163Z,6.61
2022-11-21T08:43:09.075Z,6.63
2022-11-21T08:45:37.298Z,6.73
2022-11-21T08:48:08.938Z,6.66
2022-11-21T08:50:35.373Z,6.73
2022-11-21T08:53:02.415Z,6.84
2022-11-21T08:55:29.819Z,6.77
2022-11-21T08:57:58.775Z,6.90
2022-11-21T09:00:28.171Z,6.90
2022-11-21T09:02:54.663Z,7.19
2022-11-21T09:05:21.239Z,7.45
2022-11-21T09:07:48.407Z,7.64
2022-11-21T09:10:15.377Z,7.82
2022-11-21T09:12:41.824Z,8.08
2022-11-21T09:15:30.099Z,8.41
2022-11-21T09:18:03.964Z,8.42
2022-11-21T09:20:38.528Z,8.53
2022-11-21T09:23:09.866Z,8.29
2022-11-21T09:25:36.580Z,8.13
2022-11-21T09:28:04.990Z,8.13
2022-11-21T09:30:31.489Z,8.19
2022-11-21T09:33:02.146Z,8.45
2022-11-21T09:35:29.326Z,8.41
2022-11-21T09:37:55.899Z,8.40
2022-11-21T09:40:25.188Z,8.42
2022-11-21T09:43:02.858Z,8.90
2022-11-21T09:45:44.718Z,9.17
2022-11-21T09:48:40.405Z,9.18
2022-11-21T09:51:13.607Z,9.23
2022-11-21T09:53:49.664Z,9.27
2022-11-21T09:56:23.257Z,8.98
2022-11-21T09:59:11.351Z,8.90
2022-11-21T10:01:38.754Z,8.70
2022-11-21T10:04:05.512Z,8.53
2022-11-21T10:06:38.974Z,8.24
2022-11-21T10:09:20.518Z,8.46
2022-11-21T10:12:38.120Z,8.54
2022-11-21T10:15:22.890Z,8.49
2022-11-21T10:18:07.650Z,8.50
2022-11-21T10:20:58.741Z,8.32
2022-11-21T10:23:43.365Z,8.38
2022-11-21T10:26:15.691Z,8.33
2022-11-21T10:28:57.178Z,8.41
2022-11-21T10:31:24.753Z,8.60
2022-11-21T10:33:53.194Z,8.86
2022-11-21T10:36:28.928Z,8.82
2022-11-21T10:39:12.717Z,8.79
2022-11-21T10:42:24.769Z,8.85
2022-11-21T10:45:10.624Z,8.78
2022-11-21T10:47:39.914Z,8.73
2022-11-21T10:50:09.389Z,8.95
2022-11-21T10:53:23.954Z,8.95
2022-11-21T10:56:06.528Z,8.99
2022-11-21T10:58:42.736Z,9.00
2022-11-21T11:01:31.826Z,9.09
2022-11-21T11:04:27.426Z,9.00
2022-11-21T11:06:59.838Z,8.99
2022-11-21T11:09:33.995Z,9.01
2022-11-21T11:12:18.682Z,9.00
2022-11-21T11:14:50.392Z,8.90
2022-11-21T11:17:17.276Z,8.80
2022-11-21T11:20:05.412Z,8.72
2022-11-21T11:22:32.691Z,8.78
2022-11-21T11:25:02.682Z,8.73
2022-11-21T11:27:29.853Z,8.72
2022-11-21T11:29:56.345Z,8.70
2022-11-21T11:32:23.492Z,8.58
2022-11-21T11:35:00.853Z,8.63
2022-11-21T11:37:41.851Z,8.79
2022-11-21T11:40:17.597Z,8.71
2022-11-21T11:43:31.677Z,8.91
2022-11-21T11:46:33.240Z,9.13
2022-11-21T11:49:20.828Z,9.10
2022-11-21T11:52:07.107Z,8.99
2022-11-21T11:54:43.796Z,9.12
2022-11-21T11:57:13.369Z,9.35
2022-11-21T11:59:47.069Z,9.52
2022-11-21T12:02:29.639Z,9.52
2022-11-21T12:05:11.529Z,9.43
2022-11-21T12:11:01.167Z,9.31
2022-11-21T12:13:31.146Z,9.23
2022-11-21T12:16:10.256Z,9.53
2022-11-21T12:18:58.963Z,9.68
2022-11-21T12:21:27.971Z,9.73
2022-11-21T12:23:58.905Z,9.82
2022-11-21T12:26:28.291Z,9.88
2022-11-21T12:29:32.180Z,9.92
2022-11-21T12:32:07.630Z,9.87
2022-11-21T12:34:43.421Z,9.89
2022-11-21T12:37:34.766Z,9.88
2022-11-21T12:40:35.297Z,9.97
2022-11-21T12:43:29.577Z,9.88
2022-11-21T12:46:27.867Z,9.66
2022-11-21T12:49:29.765Z,9.60
2022-11-21T12:52:32.284Z,9.62
2022-11-21T12:55:13.844Z,9.61
2022-11-21T12:57:59.036Z,9.57
2022-11-21T13:00:29.134Z,9.39
2022-11-21T13:03:17.490Z,9.32
2022-11-21T13:05:49.023Z,8.89
2022-11-21T13:08:24.725Z,8.51
2022-11-21T13:11:27.919Z,8.06
2022-11-21T13:14:39.265Z,7.92
2022-11-21T13:17:36.115Z,7.75
2022-11-21T13:20:06.850Z,7.73
2022-11-21T13:22:36.348Z,7.62
2022-11-21T13:25:10.128Z,7.63
2022-11-21T13:27:44.901Z,7.64
2022-11-21T13:30:15.292Z,7.47
2022-11-21T13:32:46.657Z,7.44
2022-11-21T13:35:19.355Z,7.25
2022-11-21T13:38:03.225Z,7.24
2022-11-21T13:40:32.690Z,6.99
2022-11-21T13:43:32.693Z,7.04
2022-11-21T13:46:00.528Z,7.15
2022-11-21T13:48:45.395Z,7.01
2022-11-21T13:51:32.806Z,6.96
2022-11-21T13:54:33.543Z,7.10
2022-11-21T13:57:41.464Z,7.27
2022-11-21T14:00:24.076Z,7.44
2022-11-21T14:03:05.694Z,7.80
2022-11-21T14:05:50.389Z,7.87
2022-11-21T14:08:19.215Z,7.94
2022-11-21T14:10:47.391Z,7.85
2022-11-21T14:13:47.154Z,7.76
2022-11-21T14:16:42.024Z,7.76
2022-11-21T14:19:16.923Z,7.98
2022-11-21T14:21:45.922Z,7.73
2022-11-21T14:24:17.542Z,7.50
2022-11-21T14:26:48.059Z,7.34
2022-11-21T14:29:28.446Z,7.37
2022-11-21T14:31:55.994Z,7.43
2022-11-21T14:34:27.059Z,7.66
2022-11-21T14:36:57.854Z,7.56
2022-11-21T14:39:40.935Z,7.44
2022-11-21T14:42:15.782Z,7.48
2022-11-21T14:44:43.046Z,7.53
2022-11-21T14:47:26.342Z,7.46
2022-11-21T14:49:55.552Z,7.44
2022-11-21T14:52:29.564Z,7.36
2022-11-21T14:57:46.118Z,7.08
2022-11-21T15:03:21.717Z,6.92
2022-11-21T15:06:06.744Z,6.92
2022-11-21T15:09:46.021Z,6.80
2022-11-21T15:11:25.485Z,6.79
2022-11-21T15:14:15.515Z,6.85
2022-11-21T15:16:48.121Z,6.82
2022-11-21T15:19:32.755Z,6.47
2022-11-21T15:22:04.475Z,6.64
2022-11-21T15:24:34.009Z,6.52
2022-11-21T15:27:26.310Z,6.48
2022-11-21T15:30:06.156Z,6.37
2022-11-21T15:32:58.224Z,6.47
2022-11-21T15:35:57.013Z,6.45
2022-11-21T15:38:31.822Z,6.42
2022-11-21T15:41:18.720Z,5.92
2022-11-21T15:43:57.201Z,5.68
2022-11-21T15:46:25.303Z,5.76
2022-11-21T15:48:53.409Z,5.82
2022-11-21T15:51:51.486Z,5.55
2022-11-21T15:54:15.475Z,5.53
2022-11-21T15:56:42.364Z,5.63
2022-11-21T15:59:10.307Z,5.64
2022-11-21T16:01:37.678Z,5.42
2022-11-21T16:04:06.719Z,5.29
2022-11-21T16:06:35.769Z,5.02
2022-11-21T16:09:03.704Z,4.99
2022-11-21T16:11:33.410Z,4.99
2022-11-21T16:14:02.237Z,4.92
2022-11-21T16:16:34.112Z,4.84
2022-11-21T16:19:03.575Z,4.85
2022-11-21T16:21:30.038Z,4.80
2022-11-21T16:23:58.423Z,4.85
2022-11-21T16:26:28.924Z,4.75
2022-11-21T16:28:56.575Z,4.60
2022-11-21T16:31:30.616Z,4.65
2022-11-21T16:33:58.601Z,4.62
2022-11-21T16:36:30.038Z,4.55
2022-11-21T16:39:07.704Z,4.64
2022-11-21T16:41:39.474Z,4.68
2022-11-21T16:44:13.045Z,4.57
2022-11-21T16:46:44.935Z,4.43
2022-11-21T16:49:11.604Z,4.20
2022-11-21T16:51:38.190Z,4.19
2022-11-21T16:54:08.887Z,4.06
2022-11-21T16:56:36.176Z,4.02
2022-11-21T16:59:03.183Z,3.80
2022-11-21T17:01:30.032Z,3.78
2022-11-21T17:03:56.794Z,3.73
2022-11-21T17:06:28.896Z,3.52
2022-11-21T17:08:55.730Z,3.51
2022-11-21T17:11:28.142Z,3.48
2022-11-21T17:13:55.885Z,3.46
2022-11-21T17:16:25.877Z,3.57
2022-11-21T17:18:56.073Z,3.45
2022-11-21T17:21:23.596Z,3.45
2022-11-21T17:23:50.877Z,3.32
2022-11-21T17:26:23.407Z,3.16
2022-11-21T17:29:00.993Z,3.01
2022-11-21T17:31:27.887Z,3.11
2022-11-21T17:33:57.180Z,3.02
2022-11-21T17:36:26.219Z,3.05
2022-11-21T17:38:55.525Z,3.14
2022-11-21T17:41:24.049Z,2.94
2022-11-21T17:43:54.347Z,2.84
2022-11-21T17:46:25.216Z,2.73
2022-11-21T17:48:55.543Z,2.69
2022-11-21T17:51:27.615Z,2.73
2022-11-21T17:53:54.198Z,2.69
2022-11-21T17:56:23.137Z,2.81
2022-11-21T17:58:51.235Z,2.76
2022-11-21T18:01:21.997Z,2.75
2022-11-21T18:03:57.222Z,2.62
2022-11-21T18:06:24.774Z,2.40
2022-11-21T18:08:51.708Z,2.37
2022-11-21T18:11:23.505Z,2.52
2022-11-21T18:13:52.804Z,2.33
2022-11-21T18:16:21.965Z,2.31
2022-11-21T18:18:51.831Z,2.31
2022-11-21T18:21:23.401Z,2.16
2022-11-21T18:23:52.107Z,2.22
2022-11-21T18:26:22.856Z,2.34
2022-11-21T18:29:01.817Z,2.21
2022-11-21T18:31:40.432Z,2.29
2022-11-21T18:34:06.919Z,2.06
2022-11-21T18:36:33.765Z,2.03
2022-11-21T18:39:08.933Z,2.21
2022-11-21T18:41:40.069Z,2.22
2022-11-21T18:44:07.379Z,2.26
2022-11-21T18:46:36.275Z,2.07
2022-11-21T18:49:06.302Z,2.18
2022-11-21T18:51:34.183Z,2.01
2022-11-21T18:54:08.310Z,2.07
2022-11-21T18:56:36.552Z,2.00
2022-11-21T18:59:05.858Z,1.95
2022-11-21T19:01:33.478Z,2.05
2022-11-21T19:04:00.003Z,2.07
2022-11-21T19:06:27.329Z,1.93
2022-11-21T19:08:55.985Z,1.92
2022-11-21T19:11:27.070Z,1.67
2022-11-21T19:13:55.114Z,1.81
2022-11-21T19:16:24.659Z,1.94
2022-11-21T19:19:18.712Z,1.98
2022-11-21T19:21:39.793Z,2.03
2022-11-21T19:24:07.342Z,1.99
2022-11-21T19:26:33.953Z,1.99
2022-11-21T19:29:00.508Z,1.97
2022-11-21T19:31:29.905Z,2.06
2022-11-21T19:33:56.467Z,2.05
2022-11-21T19:36:23.835Z,1.92
2022-11-21T19:38:51.774Z,1.95
2022-11-21T19:41:25.836Z,1.78
2022-11-21T19:43:54.806Z,1.81
2022-11-21T19:46:24.435Z,1.80
2022-11-21T19:48:52.985Z,1.98
2022-11-21T19:51:21.030Z,2.03
2022-11-21T19:53:48.158Z,1.95
2022-11-21T19:56:17.006Z,2.05
2022-11-21T19:58:44.349Z,1.83
2022-11-21T20:01:19.179Z,1.81
2022-11-21T20:03:47.877Z,1.87
2022-11-21T20:06:21.032Z,1.90
2022-11-21T20:08:56.032Z,1.91
2022-11-21T20:11:24.457Z,2.00
2022-11-21T20:13:53.567Z,2.10
2022-11-21T20:16:33.568Z,2.10
2022-11-21T20:19:02.358Z,2.11
2022-11-21T20:21:29.719Z,2.18
2022-11-21T20:23:59.150Z,2.20
2022-11-21T20:26:26.491Z,2.14
2022-11-21T20:28:55.712Z,2.34
2022-11-21T20:31:24.930Z,2.39
2022-11-21T20:33:53.752Z,2.41
2022-11-21T20:36:23.354Z,2.31
2022-11-21T20:38:50.975Z,2.48
2022-11-21T20:41:24.761Z,2.40
2022-11-21T20:46:47.434Z,2.40
2022-11-21T20:49:14.142Z,2.31
2022-11-21T20:54:28.125Z,2.43
2022-11-21T20:56:54.854Z,2.50
2022-11-21T20:59:21.669Z,2.60
2022-11-21T21:01:48.189Z,2.64
2022-11-21T21:04:14.840Z,2.53
2022-11-21T21:06:41.260Z,2.45
2022-11-21T21:09:10.447Z,2.51
2022-11-21T21:11:54.898Z,2.60
2022-11-21T21:14:22.436Z,2.57
2022-11-21T21:16:49.736Z,2.63
2022-11-21T21:19:16.314Z,2.60
2022-11-21T21:21:42.874Z,2.59
2022-11-21T21:24:11.224Z,2.60
2022-11-21T21:26:43.886Z,2.51
2022-11-21T21:29:17.188Z,2.44
2022-11-21T21:31:50.573Z,2.41
2022-11-21T21:34:19.483Z,2.44
2022-11-21T21:36:46.071Z,2.51
2022-11-21T21:39:12.823Z,2.44
2022-11-21T21:41:46.027Z,2.47
2022-11-21T21:44:13.057Z,2.65
2022-11-21T21:46:39.528Z,2.56
2022-11-21T21:49:05.987Z,2.46
2022-11-21T21:51:32.687Z,2.53
2022-11-21T21:54:00.036Z,2.52
2022-11-21T21:56:28.757Z,2.32
2022-11-21T21:58:57.206Z,2.40
2022-11-21T22:01:26.643Z,2.42
2022-11-21T22:03:59.702Z,2.21
2022-11-21T22:06:26.678Z,2.13
2022-11-21T22:08:54.211Z,2.06
2022-11-21T22:11:25.889Z,1.97
2022-11-21T22:13:55.373Z,1.92
2022-11-21T22:16:22.165Z,2.15
2022-11-21T22:18:48.593Z,2.17
2022-11-21T22:21:27.958Z,2.25
2022-11-21T22:26:45.939Z,1.97
2022-11-21T22:29:12.450Z,1.84
2022-11-21T22:31:38.923Z,1.65
2022-11-21T22:34:07.766Z,1.83
2022-11-21T22:36:34.198Z,1.79
2022-11-21T22:39:00.799Z,1.87
2022-11-21T22:41:29.516Z,1.81
2022-11-21T22:43:59.430Z,1.71
2022-11-21T22:46:28.285Z,1.80
2022-11-21T22:48:55.218Z,1.85
2022-11-21T22:51:23.989Z,1.85
2022-11-21T22:53:51.343Z,1.85
2022-11-21T22:56:22.029Z,1.79
2022-11-21T22:58:49.198Z,1.76
2022-11-21T23:01:24.175Z,1.73
2022-11-21T23:03:51.125Z,1.69
2022-11-21T23:06:26.413Z,1.48
2022-11-21T23:08:57.027Z,1.72
2022-11-21T23:11:29.188Z,1.47
2022-11-21T23:13:58.183Z,1.48
2022-11-21T23:16:27.245Z,1.42
2022-11-21T23:18:54.668Z,1.43
2022-11-21T23:21:21.548Z,1.41
2022-11-21T23:23:50.272Z,1.43
2022-11-21T23:26:16.929Z,1.64
2022-11-21T23:28:43.442Z,1.62
2022-11-21T23:31:10.414Z,1.62
2022-11-21T23:33:36.896Z,1.40
2022-11-21T23:36:03.439Z,1.49
2022-11-21T23:38:30.062Z,1.43
2022-11-21T23:40:56.530Z,1.23
2022-11-21T23:43:22.971Z,1.41
2022-11-21T23:45:53.621Z,1.38
2022-11-21T23:48:20.864Z,1.49
2022-11-21T23:50:48.117Z,1.56
2022-11-21T23:53:16.858Z,1.43
2022-11-21T23:55:44.088Z,1.29
2022-11-21T23:58:13.286Z,1.27
